KHTL

Roscommon County - Blodgett Memorial Airport

Houghton Lake, Michigan, USA
METAR KHTL 252153Z AUTO 24011G19KT 10SM CLR 29/13 A2978 RMK AO2 SLP077 T02940128
Observed Flight Rules
May-25 @ 21:53 UTC (38 minutes ago) Visual Flight Rules
Wind Visibility Clouds
240° at 11 knots
 Gusting to 19 knots
10 miles
  • Clear skies
Temperatures Readings
Current 29°C / 84°F
Dewpoint 13°C / 55°F
Humidity 37%
Altimeter 29.78" Hg
Pressure 1007.7 hPa
Elevation 351
METAR KHTL 252153Z AUTO 24011G19KT 10SM CLR 29/13 A2978 RMK AO2 SLP077 T02940128
Observed Flight Rules
May-25 @ 21:53 UTC
(38 minutes ago)
VFR
Wind Visibility
240° at 11 knots
 Gusting to 19 knots
10 miles
Clouds
  • Clear skies
Temperature Dewpoint
29°C / 84°F 13°C / 55°F
Humidity Altimeter Pressure
37% 29.78" Hg 1007.7 hPa